Time;durP1;ratioP1;P1;durP2;ratioP2;P2;SDS_P1;SDS_P2;PMS_P1;PMS_P2;Temp;Humidity;BMP_temperature;BMP_pressure;BME280_temperature;BME280_humidity;BME280_pressure;Samples;Min_cycle;Max_cycle;Signal;HPM_P1;HPM_P2
2022/06/24 00:01:57;;;;;;;21.50;7.32;;;;;;;21.76;100.00;100585.31;5037169;28;20020;-50
2022/06/24 00:04:25;;;;;;;19.67;8.93;;;;;;;21.33;100.00;100602.06;5035092;28;20029;-51
2022/06/24 00:06:51;;;;;;;18.25;10.13;;;;;;;21.15;100.00;100590.28;5037199;28;20025;-49
2022/06/24 00:09:16;;;;;;;28.85;11.00;;;;;;;21.07;100.00;100590.63;5036906;28;20501;-47
2022/06/24 00:11:42;;;;;;;20.65;9.77;;;;;;;21.15;100.00;100575.88;5036848;28;20033;-48
2022/06/24 00:14:11;;;;;;;18.42;7.38;;;;;;;21.18;100.00;100567.22;5036358;28;20042;-49
2022/06/24 00:17:00;;;;;;;26.73;9.80;;;;;;;21.27;100.00;100570.44;5017953;28;20793;-48
2022/06/24 00:19:28;;;;;;;22.40;10.10;;;;;;;21.28;100.00;100567.44;5035378;28;20045;-50
2022/06/24 00:22:00;;;;;;;23.25;11.15;;;;;;;21.35;100.00;100627.09;5015643;28;20075;-46
2022/06/24 00:24:32;;;;;;;24.52;12.48;;;;;;;21.29;100.00;100690.53;5030157;28;20124;-49
2022/06/24 00:26:58;;;;;;;27.83;13.38;;;;;;;21.14;100.00;100745.31;5033041;28;20490;-48
2022/06/24 00:29:30;;;;;;;37.00;17.67;;;;;;;20.88;100.00;100747.38;5032650;28;20108;-50
2022/06/24 00:32:08;;;;;;;54.17;24.95;;;;;;;20.47;100.00;100727.28;5019652;28;20250;-47
2022/06/24 00:34:38;;;;;;;64.68;32.70;;;;;;;19.85;100.00;100701.13;5016610;28;20052;-48
2022/06/24 00:37:26;;;;;;;53.00;28.13;;;;;;;19.10;100.00;100712.06;5015788;28;20491;-47
2022/06/24 00:39:58;;;;;;;29.38;12.68;;;;;;;18.43;100.00;100720.56;5028896;28;20500;-50
2022/06/24 00:42:25;;;;;;;16.63;7.35;;;;;;;17.92;100.00;100756.53;5035353;28;20111;-50
2022/06/24 00:45:17;;;;;;;16.85;6.13;;;;;;;17.55;100.00;100792.13;5036684;28;20035;-47
2022/06/24 00:47:43;;;;;;;20.23;5.85;;;;;;;17.20;100.00;100777.97;5028478;28;20128;-45
2022/06/24 00:50:19;;;;;;;10.95;3.97;;;;;;;17.03;100.00;100772.16;5033994;28;20100;-45
2022/06/24 00:52:46;;;;;;;16.33;4.72;;;;;;;17.02;100.00;100765.09;5029742;28;20033;-46
2022/06/24 00:55:18;;;;;;;10.32;3.90;;;;;;;17.00;100.00;100759.88;5023112;28;20144;-46
2022/06/24 00:57:43;;;;;;;9.30;3.97;;;;;;;16.96;100.00;100753.25;5033879;28;20393;-46
2022/06/24 01:00:12;;;;;;;7.43;3.47;;;;;;;16.98;100.00;100759.28;5033354;28;20339;-49
2022/06/24 01:02:39;;;;;;;6.68;3.10;;;;;;;16.92;100.00;100742.06;5023382;28;20697;-50
2022/06/24 01:05:05;;;;;;;9.23;3.38;;;;;;;16.91;100.00;100748.47;5031341;28;20024;-48
2022/06/24 01:07:36;;;;;;;11.15;3.60;;;;;;;16.90;100.00;100751.38;5033445;28;20025;-48
2022/06/24 01:10:01;;;;;;;5.93;2.85;;;;;;;16.93;100.00;100737.47;5030395;28;20419;-48
2022/06/24 01:12:26;;;;;;;6.38;2.88;;;;;;;16.84;100.00;100704.47;5032908;28;20067;-48
2022/06/24 01:14:52;;;;;;;4.97;2.80;;;;;;;16.84;100.00;100709.03;5034167;28;20029;-47
2022/06/24 01:17:17;;;;;;;9.73;2.72;;;;;;;16.82;100.00;100716.47;5029337;28;20276;-45
2022/06/24 01:19:42;;;;;;;10.10;3.00;;;;;;;16.81;100.00;100720.22;5030799;28;20048;-48
2022/06/24 01:22:08;;;;;;;9.00;2.50;;;;;;;16.81;100.00;100709.44;5031977;28;20036;-45
2022/06/24 01:24:33;;;;;;;7.35;2.50;;;;;;;16.82;100.00;100698.44;5031600;28;20336;-50
2022/06/24 01:26:59;;;;;;;8.77;2.45;;;;;;;16.74;100.00;100685.97;5032024;28;20173;-48
2022/06/24 01:29:25;;;;;;;6.53;2.70;;;;;;;16.83;100.00;100688.47;5030108;28;20480;-49
2022/06/24 01:31:53;;;;;;;8.57;3.00;;;;;;;16.88;100.00;100686.00;5016178;28;20447;-49
2022/06/24 01:34:20;;;;;;;5.43;2.75;;;;;;;17.08;100.00;100669.84;5016265;28;20498;-48
2022/06/24 01:36:46;;;;;;;4.97;2.80;;;;;;;17.14;100.00;100659.03;5014625;28;20017;-51
2022/06/24 01:39:12;;;;;;;13.73;3.50;;;;;;;17.14;100.00;100661.75;5015418;28;20471;-49
2022/06/24 01:41:37;;;;;;;7.65;3.30;;;;;;;17.23;100.00;100658.81;5014005;28;20033;-47
2022/06/24 01:44:03;;;;;;;8.73;3.35;;;;;;;17.15;100.00;100668.78;5008221;28;20024;-48
2022/06/24 01:46:29;;;;;;;7.65;3.50;;;;;;;17.21;100.00;100661.72;5018559;28;20033;-49
2022/06/24 01:48:54;;;;;;;7.07;3.22;;;;;;;17.27;100.00;100662.75;5015291;28;20021;-50
2022/06/24 01:51:21;;;;;;;6.50;3.25;;;;;;;17.26;100.00;100656.53;5020952;28;20031;-51
2022/06/24 01:53:47;;;;;;;6.05;3.13;;;;;;;17.24;100.00;100636.19;5014414;28;20044;-48
2022/06/24 01:56:12;;;;;;;9.85;3.17;;;;;;;17.11;100.00;100637.88;5014775;28;20044;-48
2022/06/24 01:58:37;;;;;;;6.97;3.13;;;;;;;17.06;100.00;100651.16;5013466;28;20060;-48
2022/06/24 02:01:03;;;;;;;11.25;3.60;;;;;;;17.01;100.00;100653.66;5014941;28;20026;-46
2022/06/24 02:03:31;;;;;;;7.15;2.97;;;;;;;17.00;100.00;100645.75;5017531;28;20377;-50
2022/06/24 02:06:02;;;;;;;9.70;3.30;;;;;;;16.98;100.00;100637.06;5014213;28;20033;-47
2022/06/24 02:08:27;;;;;;;;;;;;;;;17.01;100.00;100632.06;5014655;28;20033;-48
2022/06/24 02:13:37;;;;;;;8.88;2.95;;;;;;;16.88;100.00;100622.09;5012979;28;20122;-50
2022/06/24 02:16:04;;;;;;;5.78;3.00;;;;;;;16.86;100.00;100626.88;5014339;28;20071;-47
2022/06/24 02:18:30;;;;;;;8.10;2.90;;;;;;;16.86;100.00;100629.56;5013155;28;20104;-50
2022/06/24 02:20:57;;;;;;;7.28;3.17;;;;;;;16.90;100.00;100625.41;5014158;28;20204;-49
2022/06/24 02:23:24;;;;;;;6.97;3.50;;;;;;;17.01;100.00;100623.16;5014371;28;20073;-48
2022/06/24 02:25:51;;;;;;;5.78;3.47;;;;;;;17.04;100.00;100625.41;5010973;28;20184;-50
2022/06/24 02:28:17;;;;;;;11.02;3.78;;;;;;;17.15;100.00;100613.97;5015796;28;20153;-50
2022/06/24 02:30:44;;;;;;;7.55;4.10;;;;;;;17.22;100.00;100622.88;5026939;28;20381;-50
2022/06/24 02:33:11;;;;;;;8.60;3.88;;;;;;;17.36;100.00;100633.66;5037250;28;20080;-47
2022/06/24 02:35:37;;;;;;;6.45;3.50;;;;;;;17.36;100.00;100630.97;5037917;28;20065;-49
2022/06/24 02:38:03;;;;;;;8.48;3.85;;;;;;;17.30;100.00;100628.06;5037467;28;20033;-50
2022/06/24 02:43:16;;;;;;;7.47;4.15;;;;;;;17.25;100.00;100629.75;5038410;28;20589;-52
2022/06/24 02:45:49;;;;;;;6.72;4.00;;;;;;;17.25;100.00;100627.06;5023990;28;20116;-48
2022/06/24 02:48:16;;;;;;;9.23;4.43;;;;;;;17.27;100.00;100623.09;5036395;28;20075;-50
2022/06/24 02:50:43;;;;;;;9.95;4.38;;;;;;;17.36;100.00;100628.25;5038094;28;20127;-46
2022/06/24 02:53:09;;;;;;;14.48;4.40;;;;;;;17.47;100.00;100625.75;5037844;28;20082;-49
2022/06/24 02:55:35;;;;;;;7.75;4.20;;;;;;;17.55;100.00;100631.94;5037277;28;20049;-48
2022/06/24 02:58:01;;;;;;;8.43;4.38;;;;;;;17.56;100.00;100633.63;5037187;28;20033;-47
2022/06/24 03:00:26;;;;;;;8.45;4.30;;;;;;;17.66;100.00;100618.63;5036304;28;20029;-50
2022/06/24 03:02:52;;;;;;;6.55;4.13;;;;;;;17.68;100.00;100621.94;5036193;28;20024;-48
2022/06/24 03:05:17;;;;;;;15.32;4.60;;;;;;;17.68;100.00;100619.25;5038044;28;20033;-50
2022/06/24 03:07:42;;;;;;;5.13;3.97;;;;;;;17.65;100.00;100605.31;5019824;28;20277;-51
2022/06/24 03:10:09;;;;;;;10.55;4.47;;;;;;;17.61;100.00;100596.81;5037046;28;20039;-49
2022/06/24 03:12:34;;;;;;;14.18;4.47;;;;;;;17.61;100.00;100599.53;5037477;28;20269;-49
2022/06/24 03:14:59;;;;;;;9.32;4.80;;;;;;;17.65;100.00;100592.66;5035637;28;20499;-50
2022/06/24 03:17:24;;;;;;;9.13;4.68;;;;;;;17.62;100.00;100585.00;5035911;28;20254;-50
2022/06/24 03:19:50;;;;;;;12.60;4.95;;;;;;;17.65;100.00;100579.16;5037580;28;20029;-49
2022/06/24 03:22:15;;;;;;;11.02;5.78;;;;;;;17.55;100.00;100572.53;5037415;28;20021;-49
2022/06/24 03:24:40;;;;;;;10.30;6.10;;;;;;;17.52;100.00;100566.53;5036720;28;20029;-48
2022/06/24 03:27:06;;;;;;;11.35;6.22;;;;;;;17.48;100.00;100576.13;5037571;28;20070;-50
2022/06/24 03:29:32;;;;;;;10.43;6.25;;;;;;;17.48;100.00;100575.25;5022524;28;20021;-50
2022/06/24 03:31:57;;;;;;;15.15;5.75;;;;;;;17.45;100.00;100564.91;5035290;28;20013;-50
2022/06/24 03:34:22;;;;;;;11.70;5.03;;;;;;;17.48;100.00;100553.66;5026594;28;20124;-51
2022/06/24 03:36:49;;;;;;;10.13;5.22;;;;;;;17.48;100.00;100550.97;5018988;28;20511;-50
2022/06/24 03:39:14;;;;;;;16.50;5.32;;;;;;;17.48;100.00;100545.56;5035884;28;20059;-51
2022/06/24 03:41:39;;;;;;;11.45;5.47;;;;;;;17.53;100.00;100537.66;5036704;28;20029;-51
2022/06/24 03:44:05;;;;;;;12.27;6.07;;;;;;;17.61;100.00;100533.88;5034761;28;20063;-51
2022/06/24 03:46:30;;;;;;;10.35;5.88;;;;;;;17.56;100.00;100548.03;5037188;28;20027;-51
2022/06/24 03:48:55;;;;;;;10.93;5.47;;;;;;;17.55;100.00;100557.19;5034807;28;20691;-51
2022/06/24 03:51:21;;;;;;;10.30;6.18;;;;;;;17.58;100.00;100553.22;5037244;28;20502;-49
2022/06/24 03:53:46;;;;;;;11.10;6.40;;;;;;;17.68;100.00;100550.88;5011461;28;20046;-50
2022/06/24 03:56:11;;;;;;;11.18;6.90;;;;;;;17.75;100.00;100554.38;4996905;28;20283;-47
2022/06/24 03:58:36;;;;;;;11.57;6.57;;;;;;;17.76;100.00;100566.84;4978346;28;20430;-49
2022/06/24 04:01:03;;;;;;;11.20;7.22;;;;;;;17.76;100.00;100564.13;4995658;28;20029;-49
2022/06/24 04:03:28;;;;;;;11.13;6.70;;;;;;;17.69;100.00;100572.28;4995246;28;20220;-48
2022/06/24 04:05:54;;;;;;;12.60;7.13;;;;;;;17.67;100.00;100563.56;4996527;28;20372;-49
2022/06/24 04:08:19;;;;;;;12.70;6.97;;;;;;;17.60;100.00;100580.81;4995401;28;20117;-46
2022/06/24 04:10:44;;;;;;;10.13;6.47;;;;;;;17.63;100.00;100591.22;4994252;28;20088;-49
2022/06/24 04:13:10;;;;;;;11.65;6.88;;;;;;;17.62;100.00;100598.50;4996709;28;20030;-50
2022/06/24 04:15:35;;;;;;;11.50;6.88;;;;;;;17.65;100.00;100592.66;4995018;28;20748;-48
2022/06/24 04:18:00;;;;;;;16.25;7.75;;;;;;;17.65;100.00;100603.47;4995753;28;20026;-49
2022/06/24 04:20:26;;;;;;;14.30;7.82;;;;;;;17.65;100.00;100599.91;4995293;28;20033;-52
2022/06/24 04:22:51;;;;;;;14.40;7.65;;;;;;;17.66;100.00;100596.19;4996738;28;20116;-47
2022/06/24 04:25:16;;;;;;;15.13;7.97;;;;;;;17.72;100.00;100608.84;4996059;28;20109;-49
2022/06/24 04:27:42;;;;;;;12.93;8.27;;;;;;;17.72;100.00;100611.53;5011637;28;20032;-48
2022/06/24 04:30:10;;;;;;;12.02;7.93;;;;;;;17.75;100.00;100607.56;4995161;28;20038;-50
2022/06/24 04:32:35;;;;;;;13.27;7.88;;;;;;;17.83;100.00;100605.44;4995931;28;20018;-51
2022/06/24 04:35:00;;;;;;;16.50;8.07;;;;;;;17.85;100.00;100614.19;4995847;28;20139;-50
2022/06/24 04:37:26;;;;;;;9.90;7.50;;;;;;;17.85;100.00;100616.03;4996320;28;20033;-49
2022/06/24 04:39:51;;;;;;;12.35;7.40;;;;;;;17.84;100.00;100611.72;4996868;28;20030;-50
2022/06/24 04:42:17;;;;;;;11.38;7.50;;;;;;;17.83;100.00;100608.16;4996889;28;20386;-49
2022/06/24 04:44:42;;;;;;;10.98;7.68;;;;;;;17.83;100.00;100600.06;5009812;28;20372;-48
2022/06/24 04:47:07;;;;;;;15.20;8.05;;;;;;;17.83;100.00;100608.16;4995429;28;20026;-49
2022/06/24 04:49:33;;;;;;;10.48;7.60;;;;;;;17.91;100.00;100603.59;4996500;28;20018;-50
2022/06/24 04:51:59;;;;;;;12.43;7.82;;;;;;;18.03;100.00;100605.38;4995678;28;20105;-48
2022/06/24 04:54:24;;;;;;;13.02;8.63;;;;;;;18.11;100.00;100598.06;5012261;28;20048;-50
2022/06/24 04:56:49;;;;;;;14.73;8.82;;;;;;;18.22;100.00;100608.19;5036343;28;20025;-50
2022/06/24 04:59:15;;;;;;;14.90;8.80;;;;;;;18.24;100.00;100600.69;5034344;28;20013;-50
2022/06/24 05:01:40;;;;;;;20.25;9.43;;;;;;;18.17;100.00;100603.44;5036230;28;20507;-49
2022/06/24 05:04:05;;;;;;;17.05;8.82;;;;;;;18.17;100.00;100606.13;5015802;28;20431;-49
2022/06/24 05:06:31;;;;;;;13.93;8.57;;;;;;;18.20;100.00;100604.88;5035929;28;20017;-49
2022/06/24 05:08:56;;;;;;;14.73;8.40;;;;;;;18.24;100.00;100596.13;5034497;28;20492;-49
2022/06/24 05:11:21;;;;;;;15.55;8.85;;;;;;;18.25;100.00;100591.53;5034591;28;20059;-47
2022/06/24 05:13:47;;;;;;;18.40;8.60;;;;;;;18.23;100.00;100590.94;5011731;28;20028;-49
2022/06/24 05:16:12;;;;;;;12.68;8.75;;;;;;;18.23;100.00;100596.34;5023428;28;20510;-51
2022/06/24 05:18:38;;;;;;;12.88;8.38;;;;;;;18.15;100.00;100600.13;5020450;28;20048;-49
2022/06/24 05:21:03;;;;;;;15.55;9.48;;;;;;;18.12;100.00;100597.84;5019438;28;20044;-46
2022/06/24 05:23:29;;;;;;;15.82;10.77;;;;;;;18.12;100.00;100605.97;5015369;28;20140;-49
2022/06/24 05:25:54;;;;;;;15.57;10.38;;;;;;;18.08;100.00;100596.63;5020973;28;20546;-49
2022/06/24 05:28:20;;;;;;;17.17;11.13;;;;;;;18.21;100.00;100587.59;5014352;28;20014;-49
2022/06/24 05:30:45;;;;;;;21.83;10.40;;;;;;;18.26;100.00;100594.03;5023906;28;20490;-49
2022/06/24 05:33:10;;;;;;;61.75;11.82;;;;;;;18.26;100.00;100595.88;5021542;28;20139;-47
2022/06/24 05:35:36;;;;;;;28.67;10.15;;;;;;;18.25;100.00;100596.94;5024760;28;20035;-51
2022/06/24 05:38:01;;;;;;;24.40;9.98;;;;;;;18.28;100.00;100593.81;5021896;28;20520;-50
2022/06/24 05:40:26;;;;;;;21.40;10.48;;;;;;;18.37;100.00;100592.50;5018055;28;20108;-49
2022/06/24 05:42:52;;;;;;;15.52;9.85;;;;;;;18.24;100.00;100590.72;5023871;28;20336;-50
2022/06/24 05:45:17;;;;;;;15.05;9.60;;;;;;;18.23;100.00;100604.47;5013345;28;20033;-50
2022/06/24 05:47:43;;;;;;;20.08;9.77;;;;;;;18.17;100.00;100606.13;5014712;28;20025;-47
2022/06/24 05:50:09;;;;;;;14.50;9.23;;;;;;;18.08;100.00;100608.28;5014189;28;20124;-48
2022/06/24 05:55:18;;;;;;;15.52;10.20;;;;;;;17.99;100.00;100606.88;5028263;28;20056;-49
2022/06/24 05:57:43;;;;;;;15.68;10.27;;;;;;;18.00;100.00;100610.41;5002922;28;20041;-49
2022/06/24 06:00:09;;;;;;;17.83;11.30;;;;;;;17.94;100.00;100619.34;5025761;28;20036;-49
2022/06/24 06:02:35;;;;;;;14.77;10.10;;;;;;;17.91;100.00;100615.22;4995986;28;20042;-49
2022/06/24 06:05:00;;;;;;;19.33;11.93;;;;;;;17.85;100.00;100633.09;5014342;28;20101;-47
2022/06/24 06:07:26;;;;;;;16.95;11.13;;;;;;;17.81;100.00;100631.84;5023836;28;20029;-48
2022/06/24 06:09:51;;;;;;;22.00;12.45;;;;;;;17.82;100.00;100624.56;5032290;28;20043;-48
2022/06/24 06:12:17;;;;;;;20.88;13.60;;;;;;;17.83;100.00;100626.25;5024888;28;20016;-46
2022/06/24 06:14:42;;;;;;;19.02;12.85;;;;;;;17.91;100.00;100617.13;5013083;28;20562;-51
2022/06/24 06:17:08;;;;;;;19.23;13.40;;;;;;;17.89;100.00;100623.53;5020322;28;20033;-49
2022/06/24 06:19:34;;;;;;;23.23;13.52;;;;;;;17.96;100.00;100617.28;5029105;28;20049;-48
2022/06/24 06:22:01;;;;;;;27.08;14.15;;;;;;;17.97;100.00;100621.63;5029915;28;20036;-51
2022/06/24 06:24:26;;;;;;;21.67;13.85;;;;;;;17.99;100.00;100628.50;5029471;28;20044;-49
2022/06/24 06:26:51;;;;;;;22.88;13.40;;;;;;;18.02;100.00;100627.22;5025246;28;20477;-50
2022/06/24 06:29:17;;;;;;;19.58;13.63;;;;;;;18.13;100.00;100625.72;5012454;28;20503;-47
2022/06/24 06:31:42;;;;;;;20.98;13.32;;;;;;;18.18;100.00;100636.72;5028361;28;20709;-48
2022/06/24 06:34:07;;;;;;;20.50;12.80;;;;;;;18.17;100.00;100633.16;5016300;28;20083;-50
2022/06/24 06:36:33;;;;;;;22.00;13.48;;;;;;;18.11;100.00;100636.75;5031916;28;20404;-50
2022/06/24 06:38:58;;;;;;;19.48;13.43;;;;;;;18.12;100.00;100646.50;5033304;28;20029;-50
2022/06/24 06:41:23;;;;;;;21.17;13.43;;;;;;;18.15;100.00;100635.25;5021772;28;20477;-48
2022/06/24 06:43:48;;;;;;;23.67;13.45;;;;;;;18.23;100.00;100634.19;5015304;28;20425;-51
2022/06/24 06:46:14;;;;;;;18.63;12.90;;;;;;;18.33;100.00;100626.44;5015961;28;20199;-49
2022/06/24 06:48:39;;;;;;;20.77;12.68;;;;;;;18.50;100.00;100640.25;5021705;28;20036;-51
2022/06/24 06:51:05;;;;;;;20.17;12.48;;;;;;;18.50;100.00;100644.81;5030793;28;20104;-50
2022/06/24 06:53:30;;;;;;;19.98;13.35;;;;;;;18.48;100.00;100641.50;5019012;28;20026;-49
2022/06/24 06:55:56;;;;;;;22.42;13.52;;;;;;;18.44;100.00;100646.53;5013504;28;20041;-47
2022/06/24 06:58:22;;;;;;;21.15;13.88;;;;;;;18.49;100.00;100643.19;5013602;28;20029;-49
2022/06/24 07:00:48;;;;;;;23.02;13.93;;;;;;;18.56;100.00;100627.72;5019426;28;20072;-50
2022/06/24 07:03:14;;;;;;;25.00;14.05;;;;;;;18.56;100.00;100631.25;5012409;28;20033;-50
2022/06/24 07:05:42;;;;;;;22.85;13.40;;;;;;;18.57;100.00;100624.81;5014154;28;20052;-51
2022/06/24 07:08:08;;;;;;;24.50;14.18;;;;;;;18.76;100.00;100630.28;5013778;28;20095;-50
2022/06/24 07:10:33;;;;;;;21.35;14.57;;;;;;;18.87;100.00;100626.88;5004382;28;20511;-51
2022/06/24 07:12:58;;;;;;;23.02;15.00;;;;;;;18.95;100.00;100621.19;5022235;28;20378;-48
2022/06/24 07:15:24;;;;;;;22.83;14.10;;;;;;;19.07;100.00;100624.00;5014010;28;20059;-51
2022/06/24 07:17:49;;;;;;;23.30;15.10;;;;;;;19.16;100.00;100629.94;5030837;28;20100;-51
2022/06/24 07:20:14;;;;;;;28.00;14.77;;;;;;;19.18;100.00;100628.69;5017344;28;20490;-50
2022/06/24 07:22:40;;;;;;;20.33;14.57;;;;;;;19.28;100.00;100627.31;5017385;28;20025;-51
2022/06/24 07:25:06;;;;;;;23.50;14.65;;;;;;;19.32;100.00;100621.25;5016688;28;20514;-48
2022/06/24 07:27:31;;;;;;;22.63;13.73;;;;;;;19.39;100.00;100621.19;5017520;28;20021;-47
2022/06/24 07:29:57;;;;;;;25.13;14.40;;;;;;;19.43;100.00;100610.72;5018528;28;20037;-50
2022/06/24 07:32:22;;;;;;;24.30;14.07;;;;;;;19.47;100.00;100610.03;5036809;28;20021;-51
2022/06/24 07:34:47;;;;;;;23.85;14.35;;;;;;;19.60;100.00;100614.47;5036622;28;20479;-50
2022/06/24 07:37:12;;;;;;;22.50;14.63;;;;;;;19.59;100.00;100609.31;5037295;28;20057;-48
2022/06/24 07:39:38;;;;;;;25.95;14.68;;;;;;;19.61;100.00;100605.28;5036881;28;20036;-50
2022/06/24 07:42:05;;;;;;;21.90;15.13;;;;;;;19.63;100.00;100608.59;5037057;28;20035;-50
2022/06/24 07:44:30;;;;;;;25.90;15.90;;;;;;;19.63;100.00;100621.31;5035784;28;20021;-50
2022/06/24 07:46:57;;;;;;;22.10;15.52;;;;;;;19.58;100.00;100622.00;5036089;28;20387;-51
2022/06/24 07:49:22;;;;;;;26.23;17.80;;;;;;;19.60;100.00;100621.78;5036326;28;20021;-49
2022/06/24 07:51:48;;;;;;;24.98;17.58;;;;;;;19.57;100.00;100626.59;5036803;28;20074;-49
2022/06/24 07:54:13;;;;;;;25.05;17.55;;;;;;;19.64;100.00;100629.22;5036420;28;20055;-48
2022/06/24 07:56:58;;;;;;;27.92;18.20;;;;;;;19.58;100.00;100624.72;5036959;28;20021;-49
2022/06/24 07:59:28;;;;;;;30.77;19.27;;;;;;;19.59;100.00;100629.09;5034814;28;20055;-48
2022/06/24 08:01:55;;;;;;;28.17;20.00;;;;;;;19.49;100.00;100634.19;5035734;28;20028;-51
2022/06/24 08:04:22;;;;;;;31.15;20.98;;;;;;;19.29;100.00;100635.22;5036571;28;20134;-50
2022/06/24 08:06:49;;;;;;;37.45;23.55;;;;;;;19.19;100.00;100641.19;5036822;28;20027;-51
2022/06/24 08:09:17;;;;;;;39.22;23.30;;;;;;;19.04;100.00;100642.56;5036311;28;20033;-50
2022/06/24 08:11:42;;;;;;;47.03;25.98;;;;;;;19.07;100.00;100644.81;5036645;28;20502;-51
2022/06/24 08:14:07;;;;;;;37.40;23.20;;;;;;;19.08;100.00;100646.50;5034164;28;20017;-52
2022/06/24 08:16:33;;;;;;;38.75;23.55;;;;;;;19.13;100.00;100642.06;5017225;28;20134;-47
2022/06/24 08:18:58;;;;;;;39.22;23.00;;;;;;;19.11;100.00;100624.38;5035423;28;20162;-50
2022/06/24 08:21:24;;;;;;;37.80;23.30;;;;;;;19.09;100.00;100634.59;5036342;28;20048;-51
2022/06/24 08:23:49;;;;;;;39.17;23.40;;;;;;;19.05;100.00;100641.53;5036735;28;20024;-52
2022/06/24 08:26:16;;;;;;;42.00;24.13;;;;;;;19.12;100.00;100640.38;5035813;28;20013;-48
2022/06/24 08:28:41;;;;;;;42.83;25.13;;;;;;;19.16;100.00;100641.63;5028711;28;20036;-49
2022/06/24 08:31:07;;;;;;;43.53;25.90;;;;;;;19.06;100.00;100644.00;5027415;28;20066;-48
2022/06/24 08:33:32;;;;;;;49.42;27.48;;;;;;;19.03;100.00;100630.09;5025360;28;20028;-49
2022/06/24 08:35:57;;;;;;;51.83;29.13;;;;;;;19.05;100.00;100634.22;5035426;28;20101;-50
2022/06/24 08:38:23;;;;;;;54.03;28.77;;;;;;;19.12;100.00;100636.88;5035932;28;20094;-48
2022/06/24 08:40:49;;;;;;;61.95;32.70;;;;;;;19.29;100.00;100637.13;5036169;28;20025;-50
2022/06/24 08:43:16;;;;;;;64.47;35.50;;;;;;;19.48;100.00;100636.06;5017418;28;20127;-51
2022/06/24 08:45:42;;;;;;;68.97;36.42;;;;;;;19.79;100.00;100641.59;5034666;28;20037;-50
2022/06/24 08:48:09;;;;;;;69.13;37.85;;;;;;;20.17;100.00;100635.06;5034631;28;20032;-50
2022/06/24 08:50:34;;;;;;;67.97;37.35;;;;;;;20.43;100.00;100641.97;5035031;28;20032;-49
2022/06/24 08:53:04;;;;;;;73.03;38.58;;;;;;;20.56;100.00;100640.97;5035674;28;20052;-50
2022/06/24 08:55:34;;;;;;;64.28;35.25;;;;;;;20.62;100.00;100640.00;5035075;28;21138;-50
2022/06/24 08:58:00;;;;;;;69.50;37.70;;;;;;;20.78;100.00;100631.22;5034558;28;20017;-50
2022/06/24 09:00:25;;;;;;;66.90;36.78;;;;;;;20.94;100.00;100634.31;5034188;28;20536;-47
2022/06/24 09:02:51;;;;;;;63.15;34.03;;;;;;;21.10;100.00;100625.47;5035675;28;20033;-48
2022/06/24 09:05:16;;;;;;;60.10;30.67;;;;;;;21.15;100.00;100628.31;5035612;28;20166;-50
2022/06/24 09:07:42;;;;;;;46.85;26.65;;;;;;;21.15;100.00;100628.31;5035368;28;20075;-50
2022/06/24 09:10:11;;;;;;;53.65;28.65;;;;;;;21.29;100.00;100628.88;5034610;28;20051;-47
2022/06/24 09:12:41;;;;;;;49.42;27.23;;;;;;;21.37;100.00;100627.69;5034468;28;20029;-51
2022/06/24 09:15:09;;;;;;;53.03;29.27;;;;;;;21.40;100.00;100629.91;5033909;28;20550;-50
2022/06/24 09:17:35;;;;;;;47.38;25.80;;;;;;;21.41;100.00;100624.25;5034290;28;20025;-50
2022/06/24 09:20:08;;;;;;;46.22;25.73;;;;;;;21.44;100.00;100631.09;5033983;28;20029;-53
2022/06/24 09:22:34;;;;;;;44.40;24.67;;;;;;;21.46;100.00;100626.25;5019213;28;20531;-52
2022/06/24 09:25:03;;;;;;;44.13;26.20;;;;;;;21.71;100.00;100627.91;5016335;28;20130;-51
2022/06/24 09:27:29;;;;;;;45.80;24.38;;;;;;;22.13;100.00;100636.63;5024279;28;20029;-49
2022/06/24 09:29:55;;;;;;;47.88;21.80;;;;;;;22.22;100.00;100636.22;5016921;28;20033;-51
2022/06/24 09:32:20;;;;;;;41.13;20.88;;;;;;;22.24;100.00;100634.09;5034470;28;20017;-51
2022/06/24 09:35:06;;;;;;;40.45;21.67;;;;;;;22.30;100.00;100627.69;5035614;28;20052;-48
2022/06/24 09:37:40;;;;;;;42.20;23.73;;;;;;;22.70;100.00;100629.47;5016723;28;20092;-47
2022/06/24 09:40:15;;;;;;;39.58;22.77;;;;;;;23.08;100.00;100627.91;5022350;28;20390;-48
2022/06/24 09:42:41;;;;;;;50.80;20.77;;;;;;;23.10;100.00;100631.22;5035337;28;20566;-48
2022/06/24 09:45:07;;;;;;;41.35;22.52;;;;;;;23.18;100.00;100633.50;5033925;28;20121;-48
2022/06/24 09:47:39;;;;;;;43.92;25.88;;;;;;;23.12;100.00;100633.69;5032898;28;20021;-50
2022/06/24 09:50:05;;;;;;;53.33;30.60;;;;;;;22.92;100.00;100630.34;5034251;28;20132;-47
2022/06/24 09:52:31;;;;;;;58.50;30.08;;;;;;;22.83;100.00;100631.03;5034966;28;20203;-47
2022/06/24 09:54:57;;;;;;;56.78;31.33;;;;;;;22.81;100.00;100628.56;5016823;28;20182;-51
2022/06/24 09:57:24;;;;;;;56.13;32.00;;;;;;;22.72;100.00;100630.84;5035070;28;20128;-50
2022/06/24 10:02:36;;;;;;;63.67;35.47;;;;;;;22.99;100.00;100637.53;5033533;28;20272;-49
2022/06/24 10:05:02;;;;;;;66.00;37.28;;;;;;;23.44;100.00;100629.25;5034834;28;20039;-47
2022/06/24 10:07:33;;;;;;;61.28;35.13;;;;;;;23.99;100.00;100630.19;5034740;28;20447;-51
2022/06/24 10:10:02;;;;;;;53.08;31.42;;;;;;;24.02;100.00;100626.97;5033949;28;20056;-51
2022/06/24 10:12:30;;;;;;;54.15;31.23;;;;;;;24.19;98.44;100632.31;5034475;28;20597;-50
2022/06/24 10:14:58;;;;;;;56.53;34.17;;;;;;;24.28;97.34;100627.22;5033898;28;20033;-51
2022/06/24 10:17:25;;;;;;;59.58;33.50;;;;;;;23.97;100.00;100624.19;5033434;28;20124;-50
2022/06/24 10:19:51;;;;;;;59.20;35.72;;;;;;;23.57;100.00;100622.56;5035181;28;20052;-50
2022/06/24 10:22:42;;;;;;;59.55;32.92;;;;;;;23.21;100.00;100630.28;5016199;28;20025;-51
2022/06/24 10:25:08;;;;;;;69.68;39.17;;;;;;;22.31;100.00;100634.78;5023180;28;20533;-52
2022/06/24 10:27:58;;;;;;;57.25;33.00;;;;;;;21.26;100.00;100642.09;5034359;28;20566;-51
2022/06/24 10:30:46;;;;;;;71.22;40.55;;;;;;;20.38;100.00;100637.22;5019898;28;20040;-51
2022/06/24 10:33:17;;;;;;;86.15;51.33;;;;;;;20.06;100.00;100631.22;5033373;28;20127;-51
2022/06/24 10:36:04;;;;;;;90.20;52.78;;;;;;;20.00;100.00;100635.69;5033671;28;20116;-49
2022/06/24 10:38:36;;;;;;;98.40;54.47;;;;;;;19.93;100.00;100627.63;5034609;28;20490;-51
2022/06/24 10:41:03;;;;;;;100.88;53.17;;;;;;;19.87;100.00;100649.41;5034007;28;20124;-51
2022/06/24 10:43:42;;;;;;;63.33;37.17;;;;;;;19.67;100.00;100666.72;5034578;28;20029;-49
2022/06/24 10:46:13;;;;;;;31.05;19.02;;;;;;;19.34;100.00;100662.47;5031106;28;20473;-49
2022/06/24 10:48:44;;;;;;;35.45;17.23;;;;;;;19.10;100.00;100668.75;5035020;28;20068;-48
2022/06/24 10:51:17;;;;;;;34.72;19.95;;;;;;;18.98;100.00;100674.06;5038113;28;20029;-50
2022/06/24 10:54:01;;;;;;;39.47;22.10;;;;;;;18.99;100.00;100679.25;5020019;28;20565;-48
2022/06/24 10:56:42;;;;;;;38.90;22.70;;;;;;;18.95;100.00;100667.19;5038280;28;20095;-50
2022/06/24 10:59:08;;;;;;;40.50;21.85;;;;;;;18.94;100.00;100665.56;5037312;28;20047;-48
2022/06/24 11:01:33;;;;;;;42.60;20.77;;;;;;;18.95;100.00;100659.06;5037316;28;20294;-50
2022/06/24 11:04:05;;;;;;;41.22;21.23;;;;;;;19.05;100.00;100671.28;5037418;28;20634;-50
2022/06/24 11:06:30;;;;;;;38.17;19.73;;;;;;;19.09;100.00;100665.19;5037629;28;20040;-48
2022/06/24 11:09:05;;;;;;;35.88;18.25;;;;;;;19.16;100.00;100663.28;5037890;28;20024;-50
2022/06/24 11:11:31;;;;;;;35.80;19.27;;;;;;;19.32;100.00;100659.16;5037732;28;20021;-52
2022/06/24 11:13:56;;;;;;;31.58;16.88;;;;;;;19.39;100.00;100654.50;5032032;28;20041;-48
2022/06/24 11:16:26;;;;;;;32.75;17.92;;;;;;;19.62;100.00;100644.91;5036233;28;20106;-50
2022/06/24 11:18:51;;;;;;;35.67;18.73;;;;;;;19.81;100.00;100650.34;5019803;28;20029;-49